sensor_id;sensor_type;location;lat;lon;timestamp;pressure;altitude;pressure_sealevel;temperature;humidity
40117;BME280;25829;50.228;18.936;2022-07-09T00:01:45;99287.84;;;15.76;67.47
40117;BME280;25829;50.228;18.936;2022-07-09T00:04:46;99303.81;;;15.76;67.41
40117;BME280;25829;50.228;18.936;2022-07-09T00:07:46;99296.25;;;15.73;67.44
40117;BME280;25829;50.228;18.936;2022-07-09T00:10:47;99294.63;;;15.72;67.59
40117;BME280;25829;50.228;18.936;2022-07-09T00:13:48;99292.19;;;15.71;67.53
40117;BME280;25829;50.228;18.936;2022-07-09T00:16:49;99293.22;;;15.70;67.51
40117;BME280;25829;50.228;18.936;2022-07-09T00:19:49;99295.06;;;15.69;67.35
40117;BME280;25829;50.228;18.936;2022-07-09T00:22:50;99292.84;;;15.66;67.26
40117;BME280;25829;50.228;18.936;2022-07-09T00:25:51;99286.72;;;15.66;67.29
40117;BME280;25829;50.228;18.936;2022-07-09T00:28:53;99290.41;;;15.65;66.93
40117;BME280;25829;50.228;18.936;2022-07-09T00:31:54;99295.72;;;15.65;66.95
40117;BME280;25829;50.228;18.936;2022-07-09T00:34:54;99288.63;;;15.59;66.66
40117;BME280;25829;50.228;18.936;2022-07-09T00:37:55;99289.06;;;15.55;67.08
40117;BME280;25829;50.228;18.936;2022-07-09T00:40:56;99286.25;;;15.50;66.93
40117;BME280;25829;50.228;18.936;2022-07-09T00:43:56;99287.06;;;15.51;66.90
40117;BME280;25829;50.228;18.936;2022-07-09T00:46:57;99289.94;;;15.49;66.92
40117;BME280;25829;50.228;18.936;2022-07-09T00:49:59;99293.84;;;15.47;66.69
40117;BME280;25829;50.228;18.936;2022-07-09T00:53:00;99295.13;;;15.44;66.87
40117;BME280;25829;50.228;18.936;2022-07-09T00:56:01;99290.25;;;15.41;66.96
40117;BME280;25829;50.228;18.936;2022-07-09T00:59:03;99293.09;;;15.40;66.86
40117;BME280;25829;50.228;18.936;2022-07-09T01:02:10;99294.13;;;15.39;66.67
40117;BME280;25829;50.228;18.936;2022-07-09T01:05:11;99292.28;;;15.39;66.91
40117;BME280;25829;50.228;18.936;2022-07-09T01:08:12;99287.41;;;15.36;66.54
40117;BME280;25829;50.228;18.936;2022-07-09T01:11:13;99278.84;;;15.34;66.71
40117;BME280;25829;50.228;18.936;2022-07-09T01:14:14;99281.72;;;15.32;66.52
40117;BME280;25829;50.228;18.936;2022-07-09T01:17:15;99289.09;;;15.30;66.54
40117;BME280;25829;50.228;18.936;2022-07-09T01:20:24;99288.91;;;15.25;66.18
40117;BME280;25829;50.228;18.936;2022-07-09T01:23:25;99283.44;;;15.20;66.43
40117;BME280;25829;50.228;18.936;2022-07-09T01:26:27;99286.31;;;15.19;66.14
40117;BME280;25829;50.228;18.936;2022-07-09T01:29:28;99280.41;;;15.17;66.16
40117;BME280;25829;50.228;18.936;2022-07-09T01:32:28;99291.03;;;15.17;66.24
40117;BME280;25829;50.228;18.936;2022-07-09T01:35:29;99282.03;;;15.18;66.07
40117;BME280;25829;50.228;18.936;2022-07-09T01:38:30;99278.56;;;15.17;65.77
40117;BME280;25829;50.228;18.936;2022-07-09T01:41:31;99272.63;;;15.15;65.72
40117;BME280;25829;50.228;18.936;2022-07-09T01:44:32;99276.53;;;15.13;65.47
40117;BME280;25829;50.228;18.936;2022-07-09T01:47:33;99275.56;;;15.07;65.58
40117;BME280;25829;50.228;18.936;2022-07-09T01:50:33;99276.19;;;15.02;65.74
40117;BME280;25829;50.228;18.936;2022-07-09T01:53:35;99270.31;;;15.00;65.57
40117;BME280;25829;50.228;18.936;2022-07-09T01:56:36;99258.47;;;14.96;65.57
40117;BME280;25829;50.228;18.936;2022-07-09T01:59:36;99261.34;;;14.95;65.65
40117;BME280;25829;50.228;18.936;2022-07-09T02:02:37;99265.03;;;14.94;65.75
40117;BME280;25829;50.228;18.936;2022-07-09T02:05:38;99259.13;;;14.92;65.84
40117;BME280;25829;50.228;18.936;2022-07-09T02:08:39;99252.19;;;14.91;65.73
40117;BME280;25829;50.228;18.936;2022-07-09T02:11:39;99261.19;;;14.90;65.50
40117;BME280;25829;50.228;18.936;2022-07-09T02:14:40;99255.06;;;14.89;65.86
40117;BME280;25829;50.228;18.936;2022-07-09T02:17:41;99255.13;;;14.82;65.63
40117;BME280;25829;50.228;18.936;2022-07-09T02:20:42;99255.59;;;14.73;65.78
40117;BME280;25829;50.228;18.936;2022-07-09T02:23:42;99255.41;;;14.68;66.09
40117;BME280;25829;50.228;18.936;2022-07-09T02:26:43;99259.09;;;14.67;65.99
40117;BME280;25829;50.228;18.936;2022-07-09T02:29:44;99264.84;;;14.64;65.86
40117;BME280;25829;50.228;18.936;2022-07-09T02:32:45;99263.25;;;14.56;66.07
40117;BME280;25829;50.228;18.936;2022-07-09T02:35:46;99267.13;;;14.53;65.96
40117;BME280;25829;50.228;18.936;2022-07-09T02:38:46;99262.06;;;14.52;66.06
40117;BME280;25829;50.228;18.936;2022-07-09T02:41:48;99251.44;;;14.52;66.12
40117;BME280;25829;50.228;18.936;2022-07-09T02:44:50;99249.59;;;14.52;65.92
40117;BME280;25829;50.228;18.936;2022-07-09T02:47:51;99246.94;;;14.52;66.00
40117;BME280;25829;50.228;18.936;2022-07-09T02:50:52;99241.00;;;14.50;65.96
40117;BME280;25829;50.228;18.936;2022-07-09T02:53:53;99250.00;;;14.49;65.82
40117;BME280;25829;50.228;18.936;2022-07-09T02:56:54;99254.13;;;14.45;65.88
40117;BME280;25829;50.228;18.936;2022-07-09T02:59:54;99253.75;;;14.42;66.10
40117;BME280;25829;50.228;18.936;2022-07-09T03:02:55;99250.28;;;14.41;66.05
40117;BME280;25829;50.228;18.936;2022-07-09T03:05:56;99247.63;;;14.41;65.94
40117;BME280;25829;50.228;18.936;2022-07-09T03:08:57;99244.75;;;14.43;65.94
40117;BME280;25829;50.228;18.936;2022-07-09T03:11:58;99242.88;;;14.43;66.21
40117;BME280;25829;50.228;18.936;2022-07-09T03:14:58;99245.16;;;14.40;66.27
40117;BME280;25829;50.228;18.936;2022-07-09T03:17:59;99245.16;;;14.40;66.33
40117;BME280;25829;50.228;18.936;2022-07-09T03:21:00;99249.00;;;14.44;66.34
40117;BME280;25829;50.228;18.936;2022-07-09T03:24:01;99245.34;;;14.45;66.27
40117;BME280;25829;50.228;18.936;2022-07-09T03:27:02;99246.78;;;14.47;66.45
40117;BME280;25829;50.228;18.936;2022-07-09T03:30:04;99245.75;;;14.48;66.07
40117;BME280;25829;50.228;18.936;2022-07-09T03:33:05;99245.31;;;14.51;65.98
40117;BME280;25829;50.228;18.936;2022-07-09T03:36:06;99237.53;;;14.50;65.98
40117;BME280;25829;50.228;18.936;2022-07-09T03:39:07;99243.09;;;14.48;66.14
40117;BME280;25829;50.228;18.936;2022-07-09T03:42:07;99247.59;;;14.48;66.14
40117;BME280;25829;50.228;18.936;2022-07-09T03:45:08;99236.16;;;14.47;66.56
40117;BME280;25829;50.228;18.936;2022-07-09T03:48:09;99250.44;;;14.46;66.53
40117;BME280;25829;50.228;18.936;2022-07-09T03:51:11;99244.31;;;14.46;67.15
40117;BME280;25829;50.228;18.936;2022-07-09T03:54:12;99228.38;;;14.46;67.53
40117;BME280;25829;50.228;18.936;2022-07-09T03:57:12;99227.56;;;14.45;68.04
40117;BME280;25829;50.228;18.936;2022-07-09T04:00:14;99223.06;;;14.46;68.19
40117;BME280;25829;50.228;18.936;2022-07-09T04:03:14;99218.56;;;14.46;68.64
40117;BME280;25829;50.228;18.936;2022-07-09T04:06:15;99232.25;;;14.50;68.83
40117;BME280;25829;50.228;18.936;2022-07-09T04:09:16;99223.25;;;14.51;68.88
40117;BME280;25829;50.228;18.936;2022-07-09T04:12:17;99224.47;;;14.55;68.89
40117;BME280;25829;50.228;18.936;2022-07-09T04:15:18;99221.56;;;14.56;69.19
40117;BME280;25829;50.228;18.936;2022-07-09T04:18:19;99227.91;;;14.55;69.27
40117;BME280;25829;50.228;18.936;2022-07-09T04:21:20;99213.59;;;14.56;69.51
40117;BME280;25829;50.228;18.936;2022-07-09T04:24:24;99210.53;;;14.59;69.67
40117;BME280;25829;50.228;18.936;2022-07-09T04:27:25;99222.94;;;14.66;69.50
40117;BME280;25829;50.228;18.936;2022-07-09T04:30:27;99217.78;;;14.71;69.62
40117;BME280;25829;50.228;18.936;2022-07-09T04:33:27;99207.97;;;14.71;69.77
40117;BME280;25829;50.228;18.936;2022-07-09T04:36:28;99218.97;;;14.75;69.46
40117;BME280;25829;50.228;18.936;2022-07-09T04:39:29;99221.47;;;14.70;69.76
40117;BME280;25829;50.228;18.936;2022-07-09T04:42:30;99217.59;;;14.72;69.96
40117;BME280;25829;50.228;18.936;2022-07-09T04:45:31;99222.06;;;14.78;70.14
40117;BME280;25829;50.228;18.936;2022-07-09T04:48:34;99228.56;;;14.82;69.90
40117;BME280;25829;50.228;18.936;2022-07-09T04:51:34;99235.25;;;14.85;69.99
40117;BME280;25829;50.228;18.936;2022-07-09T04:54:35;99235.25;;;14.85;70.29
40117;BME280;25829;50.228;18.936;2022-07-09T04:57:36;99226.47;;;14.84;70.28
40117;BME280;25829;50.228;18.936;2022-07-09T05:00:37;99237.47;;;14.88;70.04
40117;BME280;25829;50.228;18.936;2022-07-09T05:03:38;99220.91;;;14.93;70.28
40117;BME280;25829;50.228;18.936;2022-07-09T05:06:39;99231.69;;;14.98;70.30
40117;BME280;25829;50.228;18.936;2022-07-09T05:09:40;99236.94;;;15.04;70.16
40117;BME280;25829;50.228;18.936;2022-07-09T05:12:41;99237.13;;;15.09;70.00
40117;BME280;25829;50.228;18.936;2022-07-09T05:15:43;99237.69;;;15.12;69.64
40117;BME280;25829;50.228;18.936;2022-07-09T05:18:44;99235.22;;;15.17;69.62
40117;BME280;25829;50.228;18.936;2022-07-09T05:21:44;99225.53;;;15.22;69.70
40117;BME280;25829;50.228;18.936;2022-07-09T05:24:45;99227.13;;;15.30;69.58
40117;BME280;25829;50.228;18.936;2022-07-09T05:27:47;99220.72;;;15.38;69.53
40117;BME280;25829;50.228;18.936;2022-07-09T05:30:49;99222.41;;;15.50;69.71
40117;BME280;25829;50.228;18.936;2022-07-09T05:33:50;99233.38;;;15.61;69.18
40117;BME280;25829;50.228;18.936;2022-07-09T05:36:52;99224.63;;;15.72;69.14
40117;BME280;25829;50.228;18.936;2022-07-09T05:39:56;99219.84;;;15.80;68.66
40117;BME280;25829;50.228;18.936;2022-07-09T05:42:57;99214.88;;;15.84;68.56
40117;BME280;25829;50.228;18.936;2022-07-09T05:45:58;99209.34;;;15.86;68.21
40117;BME280;25829;50.228;18.936;2022-07-09T05:48:59;99215.50;;;15.86;68.09
40117;BME280;25829;50.228;18.936;2022-07-09T05:52:00;99210.97;;;15.87;68.20
40117;BME280;25829;50.228;18.936;2022-07-09T05:55:01;99214.22;;;15.89;68.20
40117;BME280;25829;50.228;18.936;2022-07-09T05:58:03;99214.00;;;15.90;68.43
40117;BME280;25829;50.228;18.936;2022-07-09T06:01:05;99209.03;;;15.94;68.09
40117;BME280;25829;50.228;18.936;2022-07-09T06:04:06;99207.31;;;15.99;68.22
40117;BME280;25829;50.228;18.936;2022-07-09T06:07:07;99201.09;;;16.06;67.93
40117;BME280;25829;50.228;18.936;2022-07-09T06:10:09;99205.53;;;16.12;67.84
40117;BME280;25829;50.228;18.936;2022-07-09T06:13:10;99200.50;;;16.22;67.84
40117;BME280;25829;50.228;18.936;2022-07-09T06:16:11;99203.66;;;16.31;67.24
40117;BME280;25829;50.228;18.936;2022-07-09T06:19:13;99205.78;;;16.40;67.20
40117;BME280;25829;50.228;18.936;2022-07-09T06:22:14;99198.50;;;16.47;66.60
40117;BME280;25829;50.228;18.936;2022-07-09T06:25:15;99197.22;;;16.50;66.38
40117;BME280;25829;50.228;18.936;2022-07-09T06:28:58;99201.31;;;16.53;66.14
40117;BME280;25829;50.228;18.936;2022-07-09T06:33:27;99184.88;;;16.56;66.04
40117;BME280;25829;50.228;18.936;2022-07-09T06:37:18;99179.53;;;16.67;66.12
40117;BME280;25829;50.228;18.936;2022-07-09T06:40:54;99181.53;;;16.84;65.83
40117;BME280;25829;50.228;18.936;2022-07-09T06:44:15;99172.72;;;17.07;65.75
40117;BME280;25829;50.228;18.936;2022-07-09T06:47:16;99176.56;;;17.23;65.35
40117;BME280;25829;50.228;18.936;2022-07-09T06:50:17;99172.16;;;17.40;65.26
40117;BME280;25829;50.228;18.936;2022-07-09T06:53:18;99169.09;;;17.60;64.66
40117;BME280;25829;50.228;18.936;2022-07-09T06:56:19;99173.69;;;17.76;64.43
40117;BME280;25829;50.228;18.936;2022-07-09T06:59:19;99162.72;;;17.89;63.67
40117;BME280;25829;50.228;18.936;2022-07-09T07:02:22;99161.91;;;18.01;63.66
40117;BME280;25829;50.228;18.936;2022-07-09T07:05:23;99171.72;;;18.12;63.69
40117;BME280;25829;50.228;18.936;2022-07-09T07:08:24;99169.25;;;18.22;63.75
40117;BME280;25829;50.228;18.936;2022-07-09T07:11:25;99169.75;;;18.36;63.25
40117;BME280;25829;50.228;18.936;2022-07-09T07:14:26;99163.19;;;18.44;62.72
40117;BME280;25829;50.228;18.936;2022-07-09T07:17:27;99172.34;;;18.48;62.20
40117;BME280;25829;50.228;18.936;2022-07-09T07:20:28;99160.59;;;18.49;62.53
40117;BME280;25829;50.228;18.936;2022-07-09T07:23:29;99165.72;;;18.50;62.03
40117;BME280;25829;50.228;18.936;2022-07-09T07:26:34;99170.47;;;18.48;61.61
40117;BME280;25829;50.228;18.936;2022-07-09T07:29:34;99165.53;;;18.40;60.96
40117;BME280;25829;50.228;18.936;2022-07-09T07:32:35;99168.38;;;18.33;60.90
40117;BME280;25829;50.228;18.936;2022-07-09T07:35:36;99164.13;;;18.21;61.12
40117;BME280;25829;50.228;18.936;2022-07-09T07:38:37;99163.13;;;18.10;61.24
40117;BME280;25829;50.228;18.936;2022-07-09T07:41:38;99160.88;;;18.02;61.38
40117;BME280;25829;50.228;18.936;2022-07-09T07:44:38;99153.56;;;17.97;61.91
40117;BME280;25829;50.228;18.936;2022-07-09T07:47:39;99146.09;;;17.99;62.00
40117;BME280;25829;50.228;18.936;2022-07-09T07:50:40;99154.78;;;18.06;62.21
40117;BME280;25829;50.228;18.936;2022-07-09T07:53:41;99155.22;;;18.15;62.08
40117;BME280;25829;50.228;18.936;2022-07-09T07:56:41;99147.22;;;18.15;61.63
40117;BME280;25829;50.228;18.936;2022-07-09T07:59:42;99144.63;;;18.20;61.59
40117;BME280;25829;50.228;18.936;2022-07-09T08:02:43;99153.41;;;18.32;61.49
40117;BME280;25829;50.228;18.936;2022-07-09T08:05:44;99149.69;;;18.50;61.19
40117;BME280;25829;50.228;18.936;2022-07-09T08:08:45;99134.34;;;18.62;61.16
40117;BME280;25829;50.228;18.936;2022-07-09T08:11:46;99143.13;;;18.75;60.93
40117;BME280;25829;50.228;18.936;2022-07-09T08:14:47;99135.47;;;19.00;60.79
40117;BME280;25829;50.228;18.936;2022-07-09T08:17:47;99136.84;;;19.20;59.80
40117;BME280;25829;50.228;18.936;2022-07-09T08:20:48;99127.03;;;19.25;59.10
40117;BME280;25829;50.228;18.936;2022-07-09T08:23:51;99128.75;;;19.37;58.91
40117;BME280;25829;50.228;18.936;2022-07-09T08:26:52;99126.69;;;19.44;58.77
40117;BME280;25829;50.228;18.936;2022-07-09T08:29:53;99123.59;;;19.52;58.22
40117;BME280;25829;50.228;18.936;2022-07-09T08:32:54;99121.81;;;19.63;57.62
40117;BME280;25829;50.228;18.936;2022-07-09T08:35:54;99119.97;;;19.85;56.92
40117;BME280;25829;50.228;18.936;2022-07-09T08:38:55;99122.28;;;20.36;57.37
40117;BME280;25829;50.228;18.936;2022-07-09T08:41:56;99118.34;;;21.18;56.55
40117;BME280;25829;50.228;18.936;2022-07-09T08:45:02;99111.88;;;21.87;55.47
40117;BME280;25829;50.228;18.936;2022-07-09T08:48:03;99103.06;;;22.07;54.15
40117;BME280;25829;50.228;18.936;2022-07-09T08:51:06;99103.34;;;22.31;53.58
40117;BME280;25829;50.228;18.936;2022-07-09T08:54:07;99103.03;;;22.88;53.44
40117;BME280;25829;50.228;18.936;2022-07-09T08:57:08;99103.38;;;23.52;52.14
40117;BME280;25829;50.228;18.936;2022-07-09T09:00:09;99093.72;;;23.90;51.16
40117;BME280;25829;50.228;18.936;2022-07-09T09:03:10;99092.44;;;23.82;50.23
40117;BME280;25829;50.228;18.936;2022-07-09T09:06:12;99091.31;;;23.39;50.15
40117;BME280;25829;50.228;18.936;2022-07-09T09:09:18;99094.63;;;23.10;50.25
40117;BME280;25829;50.228;18.936;2022-07-09T09:12:27;99087.38;;;23.06;49.89
40117;BME280;25829;50.228;18.936;2022-07-09T09:15:29;99083.88;;;23.05;50.60
40117;BME280;25829;50.228;18.936;2022-07-09T09:18:30;99084.19;;;22.94;49.70
40117;BME280;25829;50.228;18.936;2022-07-09T09:21:30;99079.59;;;22.99;50.03
40117;BME280;25829;50.228;18.936;2022-07-09T09:24:31;99085.69;;;23.35;50.46
40117;BME280;25829;50.228;18.936;2022-07-09T09:27:32;99071.88;;;23.47;49.36
40117;BME280;25829;50.228;18.936;2022-07-09T09:30:41;99078.50;;;23.70;48.09
40117;BME280;25829;50.228;18.936;2022-07-09T09:33:43;99072.75;;;23.82;48.94
40117;BME280;25829;50.228;18.936;2022-07-09T09:36:46;99066.31;;;23.78;48.91
40117;BME280;25829;50.228;18.936;2022-07-09T09:39:50;99075.56;;;23.62;48.16
40117;BME280;25829;50.228;18.936;2022-07-09T09:42:52;99066.06;;;23.25;48.03
40117;BME280;25829;50.228;18.936;2022-07-09T09:45:56;99061.31;;;22.91;48.39
40117;BME280;25829;50.228;18.936;2022-07-09T09:48:59;99059.50;;;22.76;48.19
40117;BME280;25829;50.228;18.936;2022-07-09T09:52:07;99061.09;;;22.57;48.33
40117;BME280;25829;50.228;18.936;2022-07-09T09:55:09;99055.22;;;22.39;48.76
40117;BME280;25829;50.228;18.936;2022-07-09T09:58:11;99053.34;;;22.14;49.12
40117;BME280;25829;50.228;18.936;2022-07-09T10:01:13;99047.44;;;22.12;49.91
40117;BME280;25829;50.228;18.936;2022-07-09T10:04:14;99037.22;;;22.20;50.48
40117;BME280;25829;50.228;18.936;2022-07-09T10:07:16;99022.72;;;22.31;50.39
40117;BME280;25829;50.228;18.936;2022-07-09T10:10:19;99026.97;;;22.47;50.74
40117;BME280;25829;50.228;18.936;2022-07-09T10:13:21;99026.19;;;22.62;49.75
40117;BME280;25829;50.228;18.936;2022-07-09T10:16:51;99024.00;;;22.69;45.64
40117;BME280;25829;50.228;18.936;2022-07-09T10:20:04;99021.84;;;22.71;46.30
40117;BME280;25829;50.228;18.936;2022-07-09T10:23:05;99011.66;;;22.63;46.64
40117;BME280;25829;50.228;18.936;2022-07-09T10:26:06;99011.94;;;22.41;46.23
40117;BME280;25829;50.228;18.936;2022-07-09T10:29:27;99026.19;;;22.16;45.02
40117;BME280;25829;50.228;18.936;2022-07-09T10:32:32;99023.28;;;21.92;46.73
40117;BME280;25829;50.228;18.936;2022-07-09T10:35:47;99018.13;;;21.75;45.82
40117;BME280;25829;50.228;18.936;2022-07-09T10:38:54;99016.22;;;21.60;47.29
40117;BME280;25829;50.228;18.936;2022-07-09T10:45:25;98997.94;;;21.57;46.20
40117;BME280;25829;50.228;18.936;2022-07-09T10:48:31;98986.94;;;21.43;47.00
40117;BME280;25829;50.228;18.936;2022-07-09T10:51:32;98995.22;;;21.32;47.56
40117;BME280;25829;50.228;18.936;2022-07-09T10:54:34;98992.50;;;21.21;47.11
40117;BME280;25829;50.228;18.936;2022-07-09T10:57:35;98984.22;;;21.23;47.10
40117;BME280;25829;50.228;18.936;2022-07-09T11:00:39;98983.97;;;21.35;46.41
40117;BME280;25829;50.228;18.936;2022-07-09T11:03:39;98978.06;;;21.43;45.72
40117;BME280;25829;50.228;18.936;2022-07-09T11:06:44;98976.22;;;21.59;45.85
40117;BME280;25829;50.228;18.936;2022-07-09T11:09:46;98963.88;;;21.73;45.93
40117;BME280;25829;50.228;18.936;2022-07-09T11:12:48;98973.25;;;21.81;45.67
40117;BME280;25829;50.228;18.936;2022-07-09T11:15:49;98969.53;;;21.82;44.98
40117;BME280;25829;50.228;18.936;2022-07-09T11:18:49;98954.72;;;21.84;44.76
40117;BME280;25829;50.228;18.936;2022-07-09T11:22:00;98966.31;;;21.90;43.88
40117;BME280;25829;50.228;18.936;2022-07-09T11:25:07;98960.66;;;21.91;43.52
40117;BME280;25829;50.228;18.936;2022-07-09T11:28:08;98967.63;;;21.87;43.21
40117;BME280;25829;50.228;18.936;2022-07-09T11:31:09;98961.44;;;21.77;42.34
40117;BME280;25829;50.228;18.936;2022-07-09T11:34:10;98953.94;;;21.74;43.32
40117;BME280;25829;50.228;18.936;2022-07-09T11:37:11;98946.66;;;21.84;43.41
40117;BME280;25829;50.228;18.936;2022-07-09T11:40:16;98940.53;;;21.94;41.79
40117;BME280;25829;50.228;18.936;2022-07-09T11:43:18;98941.84;;;21.81;42.26
40117;BME280;25829;50.228;18.936;2022-07-09T11:46:19;98941.84;;;21.66;40.52
40117;BME280;25829;50.228;18.936;2022-07-09T11:49:20;98927.09;;;21.48;42.20
40117;BME280;25829;50.228;18.936;2022-07-09T11:52:24;98930.31;;;21.45;42.61
40117;BME280;25829;50.228;18.936;2022-07-09T11:55:30;98929.47;;;21.50;42.62
40117;BME280;25829;50.228;18.936;2022-07-09T11:58:32;98924.13;;;21.60;42.34
40117;BME280;25829;50.228;18.936;2022-07-09T12:01:33;98935.41;;;21.67;42.18
40117;BME280;25829;50.228;18.936;2022-07-09T12:04:34;98932.72;;;21.72;42.16
40117;BME280;25829;50.228;18.936;2022-07-09T12:07:35;98933.25;;;21.69;41.94
40117;BME280;25829;50.228;18.936;2022-07-09T12:10:38;98928.13;;;21.67;41.08
40117;BME280;25829;50.228;18.936;2022-07-09T12:13:39;98925.19;;;21.69;42.04
40117;BME280;25829;50.228;18.936;2022-07-09T12:16:40;98921.97;;;21.67;41.72
40117;BME280;25829;50.228;18.936;2022-07-09T12:19:41;98920.63;;;21.69;41.98
40117;BME280;25829;50.228;18.936;2022-07-09T12:22:42;98916.88;;;21.81;42.17
40117;BME280;25829;50.228;18.936;2022-07-09T12:25:43;98909.34;;;21.88;41.26
40117;BME280;25829;50.228;18.936;2022-07-09T12:28:44;98905.09;;;21.92;39.91
40117;BME280;25829;50.228;18.936;2022-07-09T12:31:45;98904.25;;;21.97;40.52
40117;BME280;25829;50.228;18.936;2022-07-09T12:34:46;98904.78;;;22.04;39.65
40117;BME280;25829;50.228;18.936;2022-07-09T12:37:47;98886.50;;;22.11;39.88
40117;BME280;25829;50.228;18.936;2022-07-09T12:40:47;98895.91;;;22.13;39.16
40117;BME280;25829;50.228;18.936;2022-07-09T12:43:48;98897.78;;;22.08;39.31
40117;BME280;25829;50.228;18.936;2022-07-09T12:46:50;98899.41;;;21.99;37.37
40117;BME280;25829;50.228;18.936;2022-07-09T12:49:51;98895.13;;;21.92;39.18
40117;BME280;25829;50.228;18.936;2022-07-09T12:52:55;98883.31;;;21.93;39.23
40117;BME280;25829;50.228;18.936;2022-07-09T12:55:55;98876.03;;;21.94;39.34
40117;BME280;25829;50.228;18.936;2022-07-09T12:59:05;98874.97;;;22.00;40.08
40117;BME280;25829;50.228;18.936;2022-07-09T13:02:06;98876.28;;;22.08;39.66
40117;BME280;25829;50.228;18.936;2022-07-09T13:05:07;98870.91;;;22.13;39.39
40117;BME280;25829;50.228;18.936;2022-07-09T13:08:09;98871.13;;;22.22;39.60
40117;BME280;25829;50.228;18.936;2022-07-09T13:11:10;98868.19;;;22.23;38.72
40117;BME280;25829;50.228;18.936;2022-07-09T13:14:11;98866.56;;;22.22;39.18
40117;BME280;25829;50.228;18.936;2022-07-09T13:17:12;98866.56;;;22.22;38.68
40117;BME280;25829;50.228;18.936;2022-07-09T13:20:13;98859.59;;;22.21;39.31
40117;BME280;25829;50.228;18.936;2022-07-09T13:23:14;98856.09;;;22.21;39.09
40117;BME280;25829;50.228;18.936;2022-07-09T13:26:17;98853.41;;;22.21;38.36
40117;BME280;25829;50.228;18.936;2022-07-09T13:29:17;98836.22;;;22.16;37.94
40117;BME280;25829;50.228;18.936;2022-07-09T13:32:19;98849.63;;;22.22;38.36
40117;BME280;25829;50.228;18.936;2022-07-09T13:35:22;98847.75;;;22.27;37.83
40117;BME280;25829;50.228;18.936;2022-07-09T13:38:28;98836.75;;;22.24;37.08
40117;BME280;25829;50.228;18.936;2022-07-09T13:41:28;98837.84;;;22.17;37.41
40117;BME280;25829;50.228;18.936;2022-07-09T13:44:29;98834.09;;;22.13;37.30
40117;BME280;25829;50.228;18.936;2022-07-09T13:47:33;98830.88;;;22.16;37.41
40117;BME280;25829;50.228;18.936;2022-07-09T13:50:34;98821.16;;;22.15;37.72
40117;BME280;25829;50.228;18.936;2022-07-09T13:53:36;98814.75;;;22.16;37.60
40117;BME280;25829;50.228;18.936;2022-07-09T13:56:37;98815.28;;;22.08;37.50
40117;BME280;25829;50.228;18.936;2022-07-09T13:59:38;98815.03;;;22.05;37.84
40117;BME280;25829;50.228;18.936;2022-07-09T14:02:39;98818.00;;;21.98;37.61
40117;BME280;25829;50.228;18.936;2022-07-09T14:05:40;98814.56;;;21.92;36.55
40117;BME280;25829;50.228;18.936;2022-07-09T14:08:41;98814.25;;;21.84;37.53
40117;BME280;25829;50.228;18.936;2022-07-09T14:11:41;98806.50;;;21.72;36.88
40117;BME280;25829;50.228;18.936;2022-07-09T14:14:43;98806.78;;;21.70;36.82
40117;BME280;25829;50.228;18.936;2022-07-09T14:17:44;98793.88;;;21.73;37.20
40117;BME280;25829;50.228;18.936;2022-07-09T14:20:44;98793.09;;;21.72;35.22
40117;BME280;25829;50.228;18.936;2022-07-09T14:23:45;98796.06;;;21.60;35.71
40117;BME280;25829;50.228;18.936;2022-07-09T14:26:48;98795.53;;;21.58;37.01
40117;BME280;25829;50.228;18.936;2022-07-09T14:29:49;98787.19;;;21.60;36.89
40117;BME280;25829;50.228;18.936;2022-07-09T14:32:50;98787.72;;;21.57;37.17
40117;BME280;25829;50.228;18.936;2022-07-09T14:35:52;98784.00;;;21.53;37.09
40117;BME280;25829;50.228;18.936;2022-07-09T14:38:53;98783.72;;;21.49;37.27
40117;BME280;25829;50.228;18.936;2022-07-09T14:41:55;98791.00;;;21.43;37.38
40117;BME280;25829;50.228;18.936;2022-07-09T14:44:56;98788.59;;;21.32;37.52
40117;BME280;25829;50.228;18.936;2022-07-09T14:47:57;98791.28;;;21.27;37.89
40117;BME280;25829;50.228;18.936;2022-07-09T14:50:58;98781.34;;;21.22;37.91
40117;BME280;25829;50.228;18.936;2022-07-09T14:53:59;98777.59;;;21.18;38.16
40117;BME280;25829;50.228;18.936;2022-07-09T14:56:59;98775.41;;;21.15;37.98
40117;BME280;25829;50.228;18.936;2022-07-09T15:00:00;98775.69;;;21.13;38.56
40117;BME280;25829;50.228;18.936;2022-07-09T15:03:01;98774.34;;;21.16;38.71
40117;BME280;25829;50.228;18.936;2022-07-09T15:06:02;98764.19;;;21.18;38.51
40117;BME280;25829;50.228;18.936;2022-07-09T15:09:03;98767.91;;;21.17;38.48
40117;BME280;25829;50.228;18.936;2022-07-09T15:12:04;98759.34;;;21.20;38.82
40117;BME280;25829;50.228;18.936;2022-07-09T15:15:05;98764.97;;;21.18;38.46
40117;BME280;25829;50.228;18.936;2022-07-09T15:18:06;98758.78;;;21.08;38.35
40117;BME280;25829;50.228;18.936;2022-07-09T15:21:07;98765.75;;;21.04;38.46
40117;BME280;25829;50.228;18.936;2022-07-09T15:24:09;98761.19;;;21.04;39.16
40117;BME280;25829;50.228;18.936;2022-07-09T15:27:10;98762.25;;;21.08;39.28
40117;BME280;25829;50.228;18.936;2022-07-09T15:30:11;98761.75;;;21.06;39.00
40117;BME280;25829;50.228;18.936;2022-07-09T15:33:12;98764.69;;;21.05;38.89
40117;BME280;25829;50.228;18.936;2022-07-09T15:36:16;98762.53;;;21.02;39.20
40117;BME280;25829;50.228;18.936;2022-07-09T15:39:17;98762.78;;;20.95;38.96
40117;BME280;25829;50.228;18.936;2022-07-09T15:42:20;98750.19;;;20.90;38.44
40117;BME280;25829;50.228;18.936;2022-07-09T15:45:21;98748.31;;;20.81;38.89
40117;BME280;25829;50.228;18.936;2022-07-09T15:48:22;98748.59;;;20.79;39.24
40117;BME280;25829;50.228;18.936;2022-07-09T15:51:23;98747.25;;;20.76;39.36
40117;BME280;25829;50.228;18.936;2022-07-09T15:54:24;98742.97;;;20.75;39.57
40117;BME280;25829;50.228;18.936;2022-07-09T15:57:28;98743.22;;;20.74;39.57